Latest Coastal Weather Observations for Rhyll

IDV60701

Issued at 6:21 am EDT Friday 12 February 2016 (issued every 10 minutes, with the page automatically refreshed every 10 minutes)

About coastal observations | Map of coastal stations | Coastal observations for VIC | Marine services | Other Formats
Station Details ID: 086373 Name: RHYLL Lat: -38.46 Lon: 145.31 Height: 13.4 m
Data from the previous 72 hours. | See also: Recent months at Rhyll
Date/Time
EDT
Temp

°C
Wind Pressure Rain
since 9am
mm
Weather Cloud Vis
km
Sea
Height
m
Swell
Dir
 
Speed
knots
Gust
knots
hPa Trend Height
m
Period
s
Dir
12/06:00am 16.8 S 6 8 1016.2 - 0.0 - - - - - - -
12/05:30am 16.9 S 5 8 1015.9 - 0.0 - - - - - - -
12/05:00am 16.9 S 5 8 1015.9 - 0.0 - - - - - - -
12/04:30am 17.3 S 6 8 1016.0 - 0.0 - - - - - - -
12/04:00am 17.5 SSE 5 8 1016.2 - 0.0 - - - - - - -
12/03:30am 17.3 SSE 6 9 1016.3 - 0.0 - - - - - - -
12/03:00am 17.4 S 6 9 1016.4 - 0.0 - - - - - - -
12/02:30am 17.7 SSE 5 7 1016.5 - 0.0 - - - - - - -
12/02:00am 17.6 SSE 4 7 1016.7 - 0.0 - - - - - - -
12/01:30am 17.9 SSE 5 8 1017.0 - 0.0 - - - - - - -
12/01:00am 18.1 SSE 5 8 1017.4 - 0.0 - - - - - - -
12/12:30am 18.2 SSE 5 8 1017.7 - 0.0 - - - - - - -
12/12:00am 18.5 SSE 6 8 1017.6 - 0.0 - - - - - - -
 
Date/Time
EDT
Temp

°C
Wind Pressure Rain
since 9am
mm
Weather Cloud Vis
km
Sea
Height
m
Swell
Dir
 
Speed
knots
Gust
knots
hPa Trend Height
m
Period
s
Dir
11/11:30pm 18.4 SSE 6 10 1017.8 - 0.0 - - - - - - -
11/11:00pm 18.0 SSE 5 7 1017.9 - 0.0 - - - - - - -
11/10:30pm 17.9 SSE 6 8 1018.1 - 0.0 - - - - - - -
11/10:00pm 18.2 SSE 6 9 1018.0 - 0.0 - - - - - - -
11/09:30pm 18.2 SSE 8 11 1017.7 - 0.0 - - - - - - -
11/09:00pm 18.3 SSE 6 10 1017.2 - 0.0 - - - - - - -
11/08:30pm 18.6 SSE 8 13 1016.8 - 0.0 - - - - - - -
11/08:00pm 19.5 SSE 8 12 1016.4 - 0.0 - - - - - - -
11/07:30pm 21.0 S 8 13 1016.4 - 0.0 - - - - - - -
11/07:00pm 21.8 S 9 11 1016.1 - 0.0 - - - - - - -
11/06:30pm 22.9 S 9 12 1015.8 - 0.0 - - - - - - -
11/06:00pm 23.4 S 9 13 1015.5 - 0.0 - - - - - - -
11/05:30pm 23.7 S 10 13 1015.6 - 0.0 - - - - - - -
11/05:00pm 24.0 S 10 14 1015.7 - 0.0 - - - - - - -
11/04:30pm 24.2 S 9 13 1015.7 - 0.0 - - - - - - -
11/04:00pm 24.0 S 10 14 1015.7 - 0.0 - - - - - - -
11/03:30pm 24.1 S 8 14 1015.6 - 0.0 - - - - - - -
11/03:00pm 24.7 S 7 13 1016.0 - 0.0 - - - - - - -
11/02:30pm 24.8 S 6 9 1016.0 - 0.0 - - - - - - -
11/02:00pm 23.1 S 7 11 1016.4 - 0.0 - - - - - - -
11/01:30pm 24.5 S 5 8 1016.4 - 0.0 - - - - - - -
11/01:00pm 23.6 S 5 10 1016.5 - 0.0 - - - - - - -
11/12:30pm 23.6 S 2 7 1016.8 - 0.0 - - - - - - -
11/12:00pm 24.1 S 1 8 1017.2 - 0.0 - - - - - - -
11/11:30am 22.1 S 4 8 1017.5 - 0.0 - - - - - - -
11/11:00am 23.1 S 5 8 1017.6 - 0.0 - - - - - - -
11/10:30am 20.2 SE 3 5 1017.7 - 0.0 - - - - - - -
11/10:00am 19.8 ESE 4 7 1017.6 - 0.0 - - - - - - -
11/09:30am 18.9 SE 3 5 1017.5 - 0.0 - - - - - - -
11/09:00am 18.8 SE 4 5 1017.4 - 0.0 - - - - - - -
11/08:30am 19.0 SE 2 3 1017.2 - 0.0 - - - - - - -
11/08:00am 18.7 SSE 2 4 1017.1 - 0.0 - - - - - - -
11/07:30am 17.6 S 2 4 1016.8 - 0.0 - - - - - - -
11/07:00am 17.2 S 3 5 1016.6 - 0.0 - - - - - - -
11/06:30am 17.0 S 3 6 1016.3 - 0.0 - - - - - - -
11/06:00am 16.9 S 4 5 1015.9 - 0.0 - - - - - - -
11/05:30am 17.1 S 3 6 1015.7 - 0.0 - - - - - - -
11/05:00am 17.1 S 4 6 1015.5 - 0.0 - - - - - - -
11/04:30am 17.5 S 4 6 1015.3 - 0.0 - - - - - - -
11/04:00am 17.9 S 4 7 1015.3 - 0.0 - - - - - - -
11/03:30am 18.0 S 4 9 1015.4 - 0.0 - - - - - - -
11/03:00am 17.8 S 3 7 1015.5 - 0.0 - - - - - - -
11/02:30am 17.5 SSE 3 5 1015.7 - 0.0 - - - - - - -
11/02:00am 17.5 SSW 3 6 1015.9 - 0.0 - - - - - - -
11/01:30am 17.7 SW 3 5 1016.1 - 0.0 - - - - - - -
11/01:00am 18.1 SSW 3 6 1016.2 - 0.0 - - - - - - -
11/12:30am 18.1 SSW 3 6 1016.4 - 0.0 - - - - - - -
11/12:00am 18.1 SW 4 6 1016.4 - 0.0 - - - - - - -
 
Date/Time
EDT
Temp

°C
Wind Pressure Rain
since 9am
mm
Weather Cloud Vis
km
Sea
Height
m
Swell
Dir
 
Speed
knots
Gust
knots
hPa Trend Height
m
Period
s
Dir
10/11:30pm 18.4 SW 5 8 1016.5 - 0.0 - - - - - - -
10/11:00pm 18.1 SSW 3 7 1016.5 - 0.0 - - - - - - -
10/10:30pm 17.8 SW 3 6 1016.4 - 0.0 - - - - - - -
10/10:00pm 17.7 SW 4 6 1016.3 - 0.0 - - - - - - -
10/09:30pm 17.7 SW 3 5 1016.1 - 0.0 - - - - - - -
10/09:00pm 17.9 SSW 4 6 1015.8 - 0.0 - - - - - - -
10/08:30pm 18.1 SSW 4 7 1015.7 - 0.0 - - - - - - -
10/08:00pm 18.8 S 4 6 1015.5 - 0.0 - - - - - - -
10/07:30pm 19.5 S 4 7 1015.3 - 0.0 - - - - - - -
10/07:00pm 20.4 S 5 9 1015.1 - 0.0 - - - - - - -
10/06:30pm 21.5 S 5 9 1014.9 - 0.0 - - - - - - -
10/06:00pm 21.2 S 6 9 1014.8 - 0.0 - - - - - - -
10/05:30pm 21.6 S 5 9 1014.7 - 0.0 - - - - - - -
10/05:00pm 21.9 S 5 9 1014.8 - 0.0 - - - - - - -
10/04:30pm 21.5 S 6 10 1014.7 - 0.0 - - - - - - -
10/04:00pm 21.4 S 5 9 1015.0 - 0.0 - - - - - - -
10/03:30pm 21.4 SSW 6 11 1015.1 - 0.0 - - - - - - -
10/03:00pm 20.9 SSW 6 10 1015.3 - 0.0 - - - - - - -
10/02:30pm 21.9 S 6 12 1015.4 - 0.0 - - - - - - -
10/02:00pm 22.7 S 5 9 1015.4 - 0.0 - - - - - - -
10/01:30pm 21.6 S 7 13 1015.5 - 0.0 - - - - - - -
10/01:00pm 22.2 S 6 12 1015.7 - 0.0 - - - - - - -
10/12:30pm 22.5 SSW 7 11 1016.0 - 0.0 - - - - - - -
10/12:00pm 22.1 S 7 11 1016.1 - 0.0 - - - - - - -
10/11:30am 21.1 S 6 11 1016.2 - 0.0 - - - - - - -
10/11:00am 20.0 SW 4 8 1016.5 - 0.0 - - - - - - -
10/10:30am 20.5 NW 2 6 1016.3 - 0.0 - - - - - - -
10/10:00am 19.8 S 2 5 1016.3 - 0.0 - - - - - - -
10/09:30am 19.7 S 2 4 1016.2 - 0.0 - - - - - - -
10/09:00am 19.1 SSW 2 5 1016.1 - 0.0 - - - - - - -
10/08:30am 18.4 SW 4 6 1016.0 - 0.0 - - - - - - -
10/08:00am 18.1 SW 3 6 1015.7 - 0.0 - - - - - - -
10/07:30am 17.9 SW 4 7 1015.4 - 0.0 - - - - - - -
10/07:00am 17.4 SW 2 4 1015.2 - 0.0 - - - - - - -
10/06:30am 17.2 SW 4 5 1015.1 - 0.0 - - - - - - -
10/06:00am 16.9 SW 3 4 1015.0 - 0.0 - - - - - - -
10/05:30am 16.6 WSW 2 3 1014.7 - 0.0 - - - - - - -
10/05:00am 16.7 WSW 3 5 1014.8 - 0.0 - - - - - - -
10/04:30am 17.2 SW 2 3 1014.9 - 0.0 - - - - - - -
10/04:00am 17.6 SW 3 6 1015.0 - 0.0 - - - - - - -
10/03:30am 17.7 SSW 5 10 1015.1 - 0.0 - - - - - - -
10/03:00am 17.6 S 4 6 1015.2 - 0.0 - - - - - - -
10/02:30am 17.8 SSW 5 7 1015.5 - 0.0 - - - - - - -
10/02:00am 17.9 SSW 4 7 1015.7 - 0.0 - - - - - - -
10/01:30am 17.7 S 3 5 1016.0 - 0.0 - - - - - - -
10/01:00am 17.8 S 5 8 1016.2 - 0.0 - - - - - - -
10/12:30am 17.9 S 5 10 1016.5 - 0.0 - - - - - - -
10/12:00am 18.0 SSW 5 9 1016.8 - 0.0 - - - - - - -
 
Date/Time
EDT
Temp

°C
Wind Pressure Rain
since 9am
mm
Weather Cloud Vis
km
Sea
Height
m
Swell
Dir
 
Speed
knots
Gust
knots
hPa Trend Height
m
Period
s
Dir
09/11:30pm 17.8 SSW 5 8 1016.9 - 0.0 - - - - - - -
09/11:00pm 17.6 S 4 6 1017.3 - 0.0 - - - - - - -
09/10:30pm 17.6 S 3 6 1017.4 - 0.0 - - - - - - -
09/10:00pm 17.6 S 4 6 1017.5 - 0.0 - - - - - - -
09/09:30pm 17.7 SSE 4 7 1017.4 - 0.0 - - - - - - -
09/09:00pm 17.9 SSE 5 8 1017.4 - 0.0 - - - - - - -
09/08:30pm 18.3 SSE 5 8 1017.5 - 0.0 - - - - - - -
09/08:00pm 19.4 S 5 8 1017.7 - 0.0 - - - - - - -
09/07:30pm 20.7 S 6 11 1017.5 - 0.0 - - - - - - -
09/07:00pm 20.7 S 6 12 1017.6 - 0.0 - - - - - - -
09/06:30pm 20.9 S 7 11 1017.5 - 0.0 - - - - - - -
09/06:00pm 22.1 S 7 10 1017.6 - 0.0 - - - - - - -
09/05:30pm 22.4 S 6 11 1017.8 - 0.0 - - - - - - -
09/05:00pm 22.8 S 7 12 1018.1 - 0.0 - - - - - - -
09/04:30pm 23.1 S 6 9 1018.4 - 0.0 - - - - - - -
09/04:00pm 23.4 S 7 11 1018.7 - 0.0 - - - - - - -
09/03:30pm 23.3 S 6 9 1019.0 - 0.0 - - - - - - -
09/03:00pm 23.7 S 6 9 1019.3 - 0.0 - - - - - - -
09/02:30pm 23.4 S 5 8 1019.6 - 0.0 - - - - - - -
09/02:00pm 23.3 S 5 8 1020.0 - 0.0 - - - - - - -
09/01:30pm 23.3 S 5 11 1020.3 - 0.0 - - - - - - -
09/01:00pm 23.2 S 5 9 1020.6 - 0.0 - - - - - - -
09/12:30pm 23.6 S 5 8 1020.9 - 0.0 - - - - - - -
09/12:00pm 22.6 S 5 9 1021.4 - 0.0 - - - - - - -
09/11:30am 22.6 SSE 5 8 1021.5 - 0.0 - - - - - - -
09/11:00am 22.3 S 4 7 1021.6 - 0.0 - - - - - - -
09/10:30am 22.1 SSE 4 8 1021.6 - 0.0 - - - - - - -
09/10:00am 21.7 S 3 6 1021.8 - 0.0 - - - - - - -
09/09:30am 20.9 S 1 5 1021.9 - 0.0 - - - - - - -
09/09:00am 19.6 S 3 6 1022.0 - 0.0 - - - - - - -
09/08:30am 18.6 SSW 2 4 1021.9 - 0.0 - - - - - - -
09/08:00am 18.5 SSE 2 5 1021.8 - 0.0 - - - - - - -
09/07:30am 18.1 SSW 3 5 1021.6 - 0.0 - - - - - - -
09/07:00am 17.6 SSE 3 5 1021.6 - 0.0 - - - - - - -
09/06:30am 17.5 S 3 6 1021.4 - 0.0 - - - - - - -

Other Formats:

Comma delimited format used in spreadsheet applications
http://www.bom.gov.au/fwo/IDV60701/IDV60701.94892.axf

JavaScript Object Notation format (JSON) in row-major order
http://www.bom.gov.au/fwo/IDV60701/IDV60701.94892.json